createdAt,value
2019-02-20T00:02:07.353Z,100.00
2019-02-20T00:04:36.150Z,100.00
2019-02-20T00:07:04.951Z,100.00
2019-02-20T00:09:33.824Z,100.00
2019-02-20T00:12:02.799Z,100.00
2019-02-20T00:14:31.748Z,100.00
2019-02-20T00:17:00.542Z,100.00
2019-02-20T00:19:29.477Z,100.00
2019-02-20T00:21:58.265Z,100.00
2019-02-20T00:24:27.115Z,100.00
2019-02-20T00:26:55.900Z,100.00
2019-02-20T00:29:24.705Z,100.00
2019-02-20T00:31:53.582Z,100.00
2019-02-20T00:34:22.360Z,100.00
2019-02-20T00:36:51.167Z,100.00
2019-02-20T00:39:19.977Z,100.00
2019-02-20T00:41:48.781Z,100.00
2019-02-20T00:44:24.702Z,100.00
2019-02-20T00:47:14.613Z,100.00
2019-02-20T00:49:46.570Z,100.00
2019-02-20T00:52:25.415Z,100.00
2019-02-20T00:54:54.373Z,100.00
2019-02-20T00:57:23.266Z,100.00
2019-02-20T00:59:52.065Z,100.00
2019-02-20T01:02:20.937Z,100.00
2019-02-20T01:04:49.746Z,100.00
2019-02-20T01:07:18.547Z,100.00
2019-02-20T01:09:47.385Z,100.00
2019-02-20T01:12:16.194Z,100.00
2019-02-20T01:14:45.048Z,100.00
2019-02-20T01:17:13.913Z,100.00
2019-02-20T01:19:42.793Z,100.00
2019-02-20T01:22:11.597Z,100.00
2019-02-20T01:24:40.407Z,100.00
2019-02-20T01:27:09.274Z,100.00
2019-02-20T01:29:38.189Z,100.00
2019-02-20T01:32:06.973Z,100.00
2019-02-20T01:34:35.825Z,100.00
2019-02-20T01:37:04.704Z,100.00
2019-02-20T01:39:34.635Z,100.00
2019-02-20T01:42:03.428Z,100.00
2019-02-20T01:44:32.245Z,100.00
2019-02-20T01:47:01.063Z,100.00
2019-02-20T01:49:30.179Z,100.00
2019-02-20T01:51:58.967Z,100.00
2019-02-20T01:54:27.859Z,100.00
2019-02-20T01:56:57.266Z,100.00
2019-02-20T01:59:26.130Z,100.00
2019-02-20T02:01:54.921Z,100.00
2019-02-20T02:04:23.749Z,100.00
2019-02-20T02:06:52.641Z,100.00
2019-02-20T02:09:21.527Z,100.00
2019-02-20T02:11:50.400Z,100.00
2019-02-20T02:14:19.201Z,100.00
2019-02-20T02:16:48.007Z,100.00
2019-02-20T02:19:16.867Z,100.00
2019-02-20T02:21:45.666Z,100.00
2019-02-20T02:24:14.545Z,100.00
2019-02-20T02:26:43.439Z,100.00
2019-02-20T02:29:12.247Z,100.00
2019-02-20T02:31:41.134Z,100.00
2019-02-20T02:34:10.004Z,100.00
2019-02-20T02:36:38.881Z,100.00
2019-02-20T02:39:07.823Z,100.00
2019-02-20T02:41:36.717Z,100.00
2019-02-20T02:44:05.771Z,100.00
2019-02-20T02:46:34.662Z,100.00
2019-02-20T02:49:03.449Z,100.00
2019-02-20T02:51:32.438Z,100.00
2019-02-20T02:54:01.253Z,100.00
2019-02-20T02:56:30.059Z,100.00
2019-02-20T02:58:58.835Z,100.00
2019-02-20T03:01:27.625Z,100.00
2019-02-20T03:03:56.424Z,100.00
2019-02-20T03:06:25.301Z,100.00
2019-02-20T03:08:54.100Z,100.00
2019-02-20T03:11:23.002Z,100.00
2019-02-20T03:13:51.788Z,100.00
2019-02-20T03:16:20.583Z,100.00
2019-02-20T03:18:49.446Z,100.00
2019-02-20T03:21:18.366Z,100.00
2019-02-20T03:23:47.213Z,100.00
2019-02-20T03:26:16.069Z,100.00
2019-02-20T03:28:44.863Z,100.00
2019-02-20T03:31:13.673Z,100.00
2019-02-20T03:33:42.665Z,100.00
2019-02-20T03:36:11.648Z,100.00
2019-02-20T03:38:40.508Z,100.00
2019-02-20T03:41:09.390Z,100.00
2019-02-20T03:43:38.246Z,100.00
2019-02-20T03:46:07.124Z,100.00
2019-02-20T03:48:35.952Z,100.00
2019-02-20T03:51:04.842Z,100.00
2019-02-20T03:53:33.631Z,100.00
2019-02-20T03:56:02.559Z,100.00
2019-02-20T03:58:33.208Z,100.00
2019-02-20T04:01:02.116Z,100.00
2019-02-20T04:03:30.903Z,100.00
2019-02-20T04:05:59.709Z,100.00
2019-02-20T04:08:28.491Z,100.00
2019-02-20T04:10:57.289Z,100.00
2019-02-20T04:13:26.087Z,100.00
2019-02-20T04:15:54.948Z,100.00
2019-02-20T04:18:23.850Z,100.00
2019-02-20T04:20:52.678Z,100.00
2019-02-20T04:23:21.551Z,100.00
2019-02-20T04:25:50.354Z,100.00
2019-02-20T04:28:19.188Z,100.00
2019-02-20T04:30:47.960Z,100.00
2019-02-20T04:33:16.751Z,100.00
2019-02-20T04:35:45.564Z,100.00
2019-02-20T04:38:14.361Z,100.00
2019-02-20T04:40:43.153Z,100.00
2019-02-20T04:43:11.956Z,100.00
2019-02-20T04:45:40.764Z,100.00
2019-02-20T04:48:09.572Z,100.00
2019-02-20T04:50:38.450Z,100.00
2019-02-20T04:53:07.258Z,100.00
2019-02-20T04:55:36.069Z,100.00
2019-02-20T04:58:33.421Z,100.00
2019-02-20T05:01:02.227Z,100.00
2019-02-20T05:03:31.101Z,100.00
2019-02-20T05:05:59.993Z,100.00
2019-02-20T05:08:28.803Z,100.00
2019-02-20T05:10:57.607Z,100.00
2019-02-20T05:13:26.420Z,100.00
2019-02-20T05:15:55.227Z,100.00
2019-02-20T05:18:24.042Z,100.00
2019-02-20T05:20:52.888Z,100.00
2019-02-20T05:23:21.700Z,100.00
2019-02-20T05:25:50.578Z,100.00
2019-02-20T05:28:19.377Z,100.00
2019-02-20T05:30:48.227Z,100.00
2019-02-20T05:33:17.051Z,100.00
2019-02-20T05:35:45.860Z,100.00
2019-02-20T05:38:14.710Z,100.00
2019-02-20T05:40:43.471Z,100.00
2019-02-20T05:43:12.310Z,100.00
2019-02-20T05:45:41.181Z,100.00
2019-02-20T05:48:09.983Z,100.00
2019-02-20T05:50:39.670Z,100.00
2019-02-20T05:53:08.462Z,100.00
2019-02-20T05:55:37.261Z,100.00
2019-02-20T05:58:06.073Z,100.00
2019-02-20T06:00:34.875Z,100.00
2019-02-20T06:03:05.040Z,100.00
2019-02-20T06:05:34.157Z,100.00
2019-02-20T06:08:02.950Z,100.00
2019-02-20T06:10:31.946Z,100.00
2019-02-20T06:13:00.774Z,100.00
2019-02-20T06:15:29.559Z,100.00
2019-02-20T06:17:58.424Z,100.00
2019-02-20T06:20:27.292Z,100.00
2019-02-20T06:22:56.092Z,100.00
2019-02-20T06:25:24.888Z,100.00
2019-02-20T06:27:53.731Z,100.00
2019-02-20T06:30:22.522Z,100.00
2019-02-20T06:32:51.352Z,100.00
2019-02-20T06:35:20.252Z,100.00
2019-02-20T06:37:49.122Z,100.00
2019-02-20T06:40:18.015Z,100.00
2019-02-20T06:42:46.816Z,100.00
2019-02-20T06:45:15.630Z,100.00
2019-02-20T06:47:44.541Z,100.00
2019-02-20T06:50:13.547Z,100.00
2019-02-20T06:52:42.488Z,100.00
2019-02-20T06:55:12.543Z,100.00
2019-02-20T06:57:42.435Z,100.00
2019-02-20T07:00:12.031Z,100.00
2019-02-20T07:02:40.861Z,100.00
2019-02-20T07:05:50.362Z,100.00
2019-02-20T07:09:02.344Z,100.00
2019-02-20T07:11:54.729Z,100.00
2019-02-20T07:14:59.126Z,100.00
2019-02-20T07:18:21.146Z,100.00
2019-02-20T07:21:22.488Z,100.00
2019-02-20T07:24:27.202Z,100.00
2019-02-20T07:27:11.182Z,100.00
2019-02-20T07:30:01.035Z,100.00
2019-02-20T07:32:30.022Z,100.00
2019-02-20T07:34:58.941Z,100.00
2019-02-20T07:37:27.759Z,100.00
2019-02-20T07:39:57.346Z,100.00
2019-02-20T07:42:26.317Z,100.00
2019-02-20T07:44:55.135Z,100.00
2019-02-20T07:47:23.935Z,100.00
2019-02-20T07:49:52.816Z,100.00
2019-02-20T07:52:21.648Z,100.00
2019-02-20T07:54:50.583Z,100.00
2019-02-20T07:57:19.363Z,100.00
2019-02-20T07:59:48.313Z,100.00
2019-02-20T08:02:17.090Z,100.00
2019-02-20T08:04:46.060Z,100.00
2019-02-20T08:07:15.430Z,100.00
2019-02-20T08:09:44.413Z,100.00
2019-02-20T08:12:13.309Z,100.00
2019-02-20T08:14:42.110Z,100.00
2019-02-20T08:17:11.042Z,100.00
2019-02-20T08:19:39.823Z,100.00
2019-02-20T08:22:08.711Z,100.00
2019-02-20T08:24:37.573Z,100.00
2019-02-20T08:27:06.526Z,100.00
2019-02-20T08:29:35.322Z,100.00
2019-02-20T08:32:04.215Z,100.00
2019-02-20T08:34:33.042Z,100.00
2019-02-20T08:37:01.867Z,100.00
2019-02-20T08:39:32.043Z,100.00
2019-02-20T08:42:00.823Z,100.00
2019-02-20T08:44:29.700Z,100.00
2019-02-20T08:46:58.509Z,100.00
2019-02-20T08:49:27.303Z,100.00
2019-02-20T08:51:56.202Z,100.00
2019-02-20T08:54:25.075Z,100.00
2019-02-20T08:56:53.874Z,100.00
2019-02-20T08:59:22.667Z,100.00
2019-02-20T09:01:51.549Z,100.00
2019-02-20T09:04:20.480Z,100.00
2019-02-20T09:06:49.282Z,100.00
2019-02-20T09:09:18.135Z,100.00
2019-02-20T09:11:47.511Z,100.00
2019-02-20T09:14:16.372Z,100.00
2019-02-20T09:16:45.216Z,100.00
2019-02-20T09:19:14.005Z,100.00
2019-02-20T09:21:42.800Z,100.00
2019-02-20T09:24:11.584Z,100.00
2019-02-20T09:26:40.386Z,100.00
2019-02-20T09:29:09.285Z,100.00
2019-02-20T09:31:38.125Z,100.00
2019-02-20T09:34:06.921Z,100.00
2019-02-20T09:36:35.735Z,100.00
2019-02-20T09:39:36.793Z,100.00
2019-02-20T09:42:10.375Z,100.00
2019-02-20T09:44:49.305Z,100.00
2019-02-20T09:47:19.174Z,100.00
2019-02-20T09:49:48.445Z,100.00
2019-02-20T09:52:17.274Z,100.00
2019-02-20T09:54:46.440Z,99.71
2019-02-20T09:57:15.314Z,99.20
2019-02-20T09:59:44.092Z,97.88
2019-02-20T10:02:12.884Z,97.17
2019-02-20T10:04:41.663Z,96.62
2019-02-20T10:07:10.745Z,95.54
2019-02-20T10:09:39.542Z,92.62
2019-02-20T10:12:08.432Z,92.16
2019-02-20T10:14:37.235Z,92.39
2019-02-20T10:17:06.143Z,90.13
2019-02-20T10:19:34.926Z,88.04
2019-02-20T10:22:03.703Z,87.77
2019-02-20T10:24:32.563Z,86.71
2019-02-20T10:27:01.345Z,87.46
2019-02-20T10:29:30.143Z,87.59
2019-02-20T10:31:58.930Z,84.94
2019-02-20T10:34:27.721Z,84.99
2019-02-20T10:36:56.506Z,85.52
2019-02-20T10:39:25.334Z,84.04
2019-02-20T10:41:54.108Z,84.32
2019-02-20T10:44:22.904Z,83.36
2019-02-20T10:46:51.697Z,82.08
2019-02-20T10:49:20.480Z,80.88
2019-02-20T10:51:49.908Z,80.44
2019-02-20T10:54:18.695Z,79.71
2019-02-20T10:56:47.470Z,79.48
2019-02-20T10:59:16.536Z,79.30
2019-02-20T11:01:45.440Z,79.27
2019-02-20T11:04:14.307Z,79.34
2019-02-20T11:06:43.109Z,78.65
2019-02-20T11:09:12.079Z,77.06
2019-02-20T11:11:40.850Z,76.53
2019-02-20T11:14:09.661Z,75.64
2019-02-20T11:16:38.430Z,75.14
2019-02-20T11:19:07.295Z,74.76
2019-02-20T11:21:36.085Z,74.50
2019-02-20T11:24:05.015Z,74.59
2019-02-20T11:26:43.273Z,75.33
2019-02-20T11:29:04.468Z,74.61
2019-02-20T11:31:33.321Z,73.04
2019-02-20T11:34:02.892Z,72.04
2019-02-20T11:36:31.758Z,70.05
2019-02-20T11:39:00.632Z,69.52
2019-02-20T11:41:29.478Z,69.05
2019-02-20T11:43:58.262Z,67.56
2019-02-20T11:46:27.119Z,68.79
2019-02-20T11:48:55.938Z,67.98
2019-02-20T11:51:24.714Z,66.87
2019-02-20T11:53:53.600Z,65.78
2019-02-20T11:56:26.566Z,65.62
2019-02-20T11:58:52.920Z,65.79
2019-02-20T12:01:21.748Z,65.09
2019-02-20T12:03:50.623Z,63.12
2019-02-20T12:06:19.772Z,63.56
2019-02-20T12:08:48.605Z,62.59
2019-02-20T12:11:18.586Z,60.91
2019-02-20T12:13:47.489Z,61.76
2019-02-20T12:16:16.404Z,61.81
2019-02-20T12:18:48.414Z,62.05
2019-02-20T12:21:18.075Z,64.12
2019-02-20T12:23:47.051Z,63.76
2019-02-20T12:26:16.026Z,63.71
2019-02-20T12:28:44.808Z,65.53
2019-02-20T12:31:13.666Z,63.44
2019-02-20T12:33:42.444Z,63.08
2019-02-20T12:36:11.301Z,63.30
2019-02-20T12:38:40.081Z,64.85
2019-02-20T12:41:08.878Z,63.62
2019-02-20T12:43:37.662Z,63.00
2019-02-20T12:46:06.601Z,63.68
2019-02-20T12:48:35.406Z,64.33
2019-02-20T12:51:04.350Z,64.47
2019-02-20T12:53:33.138Z,64.71
2019-02-20T12:56:09.673Z,64.36
2019-02-20T12:58:32.457Z,64.25
2019-02-20T13:01:01.258Z,63.10
2019-02-20T13:03:30.063Z,63.93
2019-02-20T13:05:58.923Z,64.78
2019-02-20T13:08:28.099Z,63.17
2019-02-20T13:10:57.276Z,63.07
2019-02-20T13:13:26.402Z,63.26
2019-02-20T13:15:55.584Z,63.59
2019-02-20T13:18:24.374Z,61.91
2019-02-20T13:20:54.195Z,61.27
2019-02-20T13:23:23.093Z,62.53
2019-02-20T13:25:51.977Z,60.93
2019-02-20T13:28:23.238Z,61.70
2019-02-20T13:30:52.019Z,61.72
2019-02-20T13:33:20.803Z,61.63
2019-02-20T13:35:49.592Z,62.62
2019-02-20T13:38:18.374Z,61.49
2019-02-20T13:40:47.175Z,61.75
2019-02-20T13:43:15.954Z,61.66
2019-02-20T13:45:45.235Z,60.68
2019-02-20T13:48:14.071Z,60.88
2019-02-20T13:50:42.859Z,61.16
2019-02-20T13:53:11.709Z,60.38
2019-02-20T13:55:42.376Z,59.04
2019-02-20T13:58:11.736Z,58.66
2019-02-20T14:00:40.652Z,59.02
2019-02-20T14:03:09.431Z,60.22
2019-02-20T14:05:38.227Z,60.43
2019-02-20T14:08:07.069Z,59.97
2019-02-20T14:10:35.877Z,59.64
2019-02-20T14:13:04.658Z,60.32
2019-02-20T14:15:33.453Z,60.64
2019-02-20T14:18:02.517Z,59.62
2019-02-20T14:20:31.454Z,58.86
2019-02-20T14:23:00.345Z,59.75
2019-02-20T14:25:29.359Z,60.18
2019-02-20T14:27:58.208Z,59.43
2019-02-20T14:30:27.088Z,59.86
2019-02-20T14:32:56.304Z,59.96
2019-02-20T14:35:25.094Z,59.51
2019-02-20T14:37:53.882Z,59.20
2019-02-20T14:40:22.686Z,59.05
2019-02-20T14:42:53.289Z,59.54
2019-02-20T14:45:25.206Z,59.58
2019-02-20T14:47:54.007Z,60.38
2019-02-20T14:50:23.052Z,61.17
2019-02-20T14:52:51.873Z,61.44
2019-02-20T14:55:20.714Z,61.37
2019-02-20T14:57:51.038Z,60.79
2019-02-20T15:00:20.351Z,60.97
2019-02-20T15:02:49.116Z,61.60
2019-02-20T15:05:18.423Z,61.27
2019-02-20T15:07:47.205Z,61.91
2019-02-20T15:10:16.058Z,62.17
2019-02-20T15:12:46.638Z,61.45
2019-02-20T15:15:15.690Z,62.05
2019-02-20T15:17:44.565Z,62.29
2019-02-20T15:20:13.607Z,61.55
2019-02-20T15:22:42.468Z,61.94
2019-02-20T15:25:11.410Z,61.88
2019-02-20T15:27:40.279Z,62.01
2019-02-20T15:30:12.367Z,61.84
2019-02-20T15:32:41.612Z,62.14
2019-02-20T15:35:10.660Z,62.69
2019-02-20T15:37:39.602Z,63.48
2019-02-20T15:40:09.088Z,63.78
2019-02-20T15:42:37.970Z,64.08
2019-02-20T15:45:07.134Z,64.78
2019-02-20T15:47:35.965Z,65.51
2019-02-20T15:50:05.862Z,64.85
2019-02-20T15:52:35.115Z,65.32
2019-02-20T15:55:04.488Z,65.51
2019-02-20T15:57:38.085Z,65.54
2019-02-20T16:00:04.470Z,66.08
2019-02-20T16:02:33.418Z,66.66
2019-02-20T16:05:02.279Z,66.26
2019-02-20T16:07:31.363Z,66.76
2019-02-20T16:10:00.209Z,67.08
2019-02-20T16:12:29.856Z,67.03
2019-02-20T16:14:58.651Z,67.83
2019-02-20T16:17:27.507Z,68.29
2019-02-20T16:19:56.460Z,69.29
2019-02-20T16:22:25.256Z,69.71
2019-02-20T16:24:54.394Z,69.90
2019-02-20T16:27:23.266Z,70.00
2019-02-20T16:29:52.200Z,70.14
2019-02-20T16:32:20.984Z,70.49
2019-02-20T16:34:49.873Z,70.81
2019-02-20T16:37:18.734Z,71.33
2019-02-20T16:39:47.890Z,71.46
2019-02-20T16:42:16.680Z,71.56
2019-02-20T16:44:45.780Z,72.76
2019-02-20T16:47:14.650Z,72.76
2019-02-20T16:49:43.430Z,72.66
2019-02-20T16:52:12.397Z,72.52
2019-02-20T16:54:41.312Z,72.78
2019-02-20T16:57:10.364Z,72.80
2019-02-20T16:59:39.153Z,73.88
2019-02-20T17:02:08.998Z,74.04
2019-02-20T17:04:39.505Z,73.99
2019-02-20T17:07:08.466Z,73.95
2019-02-20T17:09:37.287Z,74.33
2019-02-20T17:12:06.404Z,74.76
2019-02-20T17:14:36.547Z,74.60
2019-02-20T17:17:05.597Z,74.74
2019-02-20T17:19:34.370Z,74.36
2019-02-20T17:22:03.404Z,74.50
2019-02-20T17:24:33.422Z,74.24
2019-02-20T17:27:02.819Z,74.70
2019-02-20T17:29:31.741Z,75.20
2019-02-20T17:32:00.537Z,75.51
2019-02-20T17:34:29.321Z,75.88
2019-02-20T17:36:58.279Z,76.47
2019-02-20T17:39:27.216Z,76.90
2019-02-20T17:41:56.008Z,77.29
2019-02-20T17:44:24.803Z,77.71
2019-02-20T17:46:53.588Z,78.24
2019-02-20T17:49:22.457Z,78.47
2019-02-20T17:51:51.312Z,78.96
2019-02-20T17:54:20.177Z,78.84
2019-02-20T17:56:49.030Z,79.14
2019-02-20T17:59:17.829Z,79.52
2019-02-20T18:01:46.790Z,79.88
2019-02-20T18:04:15.629Z,80.27
2019-02-20T18:06:44.408Z,80.57
2019-02-20T18:09:13.683Z,80.90
2019-02-20T18:11:42.542Z,81.09
2019-02-20T18:14:11.415Z,81.18
2019-02-20T18:16:40.272Z,81.41
2019-02-20T18:19:09.087Z,81.71
2019-02-20T18:21:37.954Z,82.10
2019-02-20T18:24:06.893Z,82.80
2019-02-20T18:26:35.688Z,84.50
2019-02-20T18:29:04.987Z,84.55
2019-02-20T18:31:33.845Z,84.13
2019-02-20T18:34:03.002Z,83.88
2019-02-20T18:36:31.794Z,84.03
2019-02-20T18:39:00.590Z,84.37
2019-02-20T18:41:29.372Z,84.80
2019-02-20T18:43:58.189Z,85.06
2019-02-20T18:46:26.977Z,85.57
2019-02-20T18:48:55.840Z,85.93
2019-02-20T18:51:24.699Z,86.45
2019-02-20T18:53:53.577Z,86.89
2019-02-20T18:56:22.461Z,87.14
2019-02-20T18:58:51.226Z,87.63
2019-02-20T19:01:20.026Z,88.05
2019-02-20T19:03:48.829Z,88.46
2019-02-20T19:06:17.767Z,88.86
2019-02-20T19:08:52.132Z,89.47
2019-02-20T19:11:34.202Z,90.03
2019-02-20T19:14:20.507Z,90.77
2019-02-20T19:17:19.664Z,91.85
2019-02-20T19:20:35.026Z,92.55
2019-02-20T19:23:39.769Z,93.29
2019-02-20T19:26:38.645Z,93.54
2019-02-20T19:29:41.017Z,93.89
2019-02-20T19:32:46.811Z,93.88
2019-02-20T19:35:39.995Z,93.69
2019-02-20T19:38:56.099Z,94.83
2019-02-20T19:41:41.698Z,95.38
2019-02-20T19:44:31.872Z,95.63
2019-02-20T19:47:29.594Z,95.98
2019-02-20T19:50:46.188Z,95.88
2019-02-20T19:53:51.541Z,95.07
2019-02-20T19:56:34.625Z,95.00
2019-02-20T19:59:32.735Z,95.14
2019-02-20T20:02:40.611Z,95.55
2019-02-20T20:06:08.934Z,96.08
2019-02-20T20:08:46.424Z,97.86
2019-02-20T20:11:29.224Z,98.88
2019-02-20T20:14:36.426Z,99.46
2019-02-20T20:17:36.328Z,100.00
2019-02-20T20:20:35.155Z,100.00
2019-02-20T20:23:11.790Z,100.00
2019-02-20T20:26:00.168Z,100.00
2019-02-20T20:28:47.453Z,100.00
2019-02-20T20:31:42.297Z,100.00
2019-02-20T20:35:04.635Z,100.00
2019-02-20T20:37:53.948Z,100.00
2019-02-20T20:40:51.915Z,100.00
2019-02-20T20:43:46.421Z,100.00
2019-02-20T20:46:40.962Z,100.00
2019-02-20T20:50:12.859Z,100.00
2019-02-20T20:53:10.799Z,100.00
2019-02-20T20:56:20.975Z,100.00
2019-02-20T20:59:26.034Z,100.00
2019-02-20T21:02:17.263Z,100.00
2019-02-20T21:05:08.481Z,100.00
2019-02-20T21:08:22.023Z,100.00
2019-02-20T21:11:21.556Z,100.00
2019-02-20T21:14:24.248Z,100.00
2019-02-20T21:17:25.538Z,100.00
2019-02-20T21:20:53.820Z,100.00
2019-02-20T21:24:03.471Z,100.00
2019-02-20T21:27:00.273Z,100.00
2019-02-20T21:30:15.060Z,100.00
2019-02-20T21:33:16.539Z,100.00
2019-02-20T21:36:15.410Z,100.00
2019-02-20T21:39:30.595Z,100.00
2019-02-20T21:42:31.453Z,100.00
2019-02-20T21:45:17.475Z,100.00
2019-02-20T21:48:15.325Z,100.00
2019-02-20T21:50:50.816Z,100.00
2019-02-20T21:53:49.698Z,100.00
2019-02-20T21:56:27.018Z,100.00
2019-02-20T22:03:11.249Z,100.00
2019-02-20T22:06:09.803Z,100.00
2019-02-20T22:09:20.297Z,100.00
2019-02-20T22:12:50.518Z,100.00
2019-02-20T22:15:49.920Z,100.00
2019-02-20T22:19:03.089Z,100.00
2019-02-20T22:22:19.634Z,100.00
2019-02-20T22:25:31.941Z,100.00
2019-02-20T22:28:24.106Z,100.00
2019-02-20T22:31:14.273Z,100.00
2019-02-20T22:34:05.021Z,100.00
2019-02-20T22:37:04.410Z,100.00
2019-02-20T22:40:20.046Z,100.00
2019-02-20T22:43:45.437Z,100.00
2019-02-20T22:46:42.550Z,100.00
2019-02-20T22:49:23.505Z,100.00
2019-02-20T22:52:23.148Z,100.00
2019-02-20T22:55:16.529Z,100.00
2019-02-20T22:58:02.324Z,100.00
2019-02-20T23:01:07.097Z,100.00
2019-02-20T23:04:09.598Z,100.00
2019-02-20T23:07:00.921Z,100.00
2019-02-20T23:10:01.639Z,100.00
2019-02-20T23:12:44.869Z,100.00
2019-02-20T23:15:13.753Z,100.00
2019-02-20T23:17:42.645Z,100.00
2019-02-20T23:20:11.506Z,100.00
2019-02-20T23:22:40.304Z,100.00
2019-02-20T23:25:09.193Z,100.00
2019-02-20T23:27:38.047Z,100.00
2019-02-20T23:30:12.870Z,100.00
2019-02-20T23:32:38.895Z,100.00
2019-02-20T23:35:08.265Z,100.00
2019-02-20T23:37:37.124Z,100.00
2019-02-20T23:40:06.714Z,100.00
2019-02-20T23:42:35.668Z,100.00
2019-02-20T23:45:05.100Z,100.00
2019-02-20T23:47:33.888Z,100.00
2019-02-20T23:50:02.685Z,100.00
2019-02-20T23:52:31.549Z,100.00
2019-02-20T23:55:00.502Z,100.00
2019-02-20T23:57:29.428Z,100.00
2019-02-20T23:59:58.246Z,100.00
